Time;durP1;ratioP1;P1;durP2;ratioP2;P2;SDS_P1;SDS_P2;PMS_P1;PMS_P2;Temp;Humidity;BMP_temperature;BMP_pressure;BME280_temperature;BME280_humidity;BME280_pressure;Samples;Min_cycle;Max_cycle;Signal;HPM_P1;HPM_P2
2022/05/06 00:01:52;;;;;;;8.25;4.95;;;7.20;44.30;;;;;;5032363;28;20070;-79
2022/05/06 00:04:19;;;;;;;7.70;4.82;;;7.30;44.30;;;;;;5032506;28;20022;-79
2022/05/06 00:06:45;;;;;;;6.68;5.28;;;7.20;44.20;;;;;;5032426;28;20029;-80
2022/05/06 00:09:11;;;;;;;8.93;5.53;;;7.20;44.20;;;;;;5032700;28;20032;-81
2022/05/06 00:11:37;;;;;;;8.95;5.78;;;7.20;44.10;;;;;;5032598;28;20044;-79
2022/05/06 00:14:02;;;;;;;12.80;5.90;;;7.30;44.20;;;;;;5032259;28;20026;-80
2022/05/06 00:16:28;;;;;;;10.00;5.32;;;7.30;44.20;;;;;;5032157;28;20072;-79
2022/05/06 00:18:55;;;;;;;9.95;5.93;;;7.30;44.20;;;;;;5032324;28;20022;-79
2022/05/06 00:21:21;;;;;;;6.50;4.70;;;7.30;44.20;;;;;;5014028;28;20040;-79
2022/05/06 00:23:47;;;;;;;9.82;4.85;;;7.30;44.30;;;;;;5032230;28;20029;-79
2022/05/06 00:26:13;;;;;;;7.47;5.68;;;7.30;44.10;;;;;;5032027;28;20025;-80
2022/05/06 00:28:39;;;;;;;7.80;5.30;;;7.30;44.20;;;;;;5031959;28;20025;-79
2022/05/06 00:31:06;;;;;;;7.90;5.00;;;7.30;44.20;;;;;;5032317;28;20030;-79
2022/05/06 00:33:33;;;;;;;10.45;5.20;;;7.30;44.10;;;;;;5032050;28;20029;-79
2022/05/06 00:36:01;;;;;;;10.98;6.53;;;7.30;44.10;;;;;;5032034;28;20156;-79
2022/05/06 00:38:28;;;;;;;6.75;4.57;;;7.40;44.20;;;;;;5031947;28;20029;-79
2022/05/06 00:40:54;;;;;;;9.07;5.35;;;7.40;44.00;;;;;;5031816;28;20026;-80
2022/05/06 00:43:21;;;;;;;7.85;4.47;;;7.40;44.00;;;;;;5032106;28;20320;-80
2022/05/06 00:45:55;;;;;;;11.52;5.68;;;7.40;43.80;;;;;;5015483;28;20403;-79
2022/05/06 00:48:30;;;;;;;6.78;4.55;;;7.50;44.00;;;;;;5012055;28;20030;-79
2022/05/06 00:50:58;;;;;;;7.15;4.53;;;7.50;44.00;;;;;;5012193;28;20049;-79
2022/05/06 00:53:25;;;;;;;9.43;4.63;;;7.50;44.10;;;;;;5012533;28;20049;-81
2022/05/06 00:55:52;;;;;;;8.38;3.90;;;7.50;43.90;;;;;;5012187;28;20026;-79
2022/05/06 00:58:19;;;;;;;9.20;4.70;;;7.60;43.90;;;;;;5012100;28;20379;-80
2022/05/06 01:00:45;;;;;;;8.65;4.65;;;7.50;43.80;;;;;;5012216;28;20025;-79
2022/05/06 01:03:12;;;;;;;5.95;4.28;;;7.60;43.90;;;;;;5012125;28;20722;-80
2022/05/06 01:05:39;;;;;;;9.43;4.85;;;7.60;43.90;;;;;;4994589;28;20034;-79
2022/05/06 01:08:05;;;;;;;9.70;4.10;;;7.60;43.90;;;;;;5015460;28;20379;-80
2022/05/06 01:10:31;;;;;;;6.13;4.15;;;7.70;43.70;;;;;;4998167;28;20114;-79
2022/05/06 01:12:57;;;;;;;5.28;3.75;;;7.70;43.60;;;;;;5015828;28;20485;-80
2022/05/06 01:15:25;;;;;;;7.30;3.42;;;7.70;43.40;;;;;;5024406;28;20097;-80
2022/05/06 01:17:54;;;;;;;9.85;5.00;;;7.80;43.40;;;;;;5017412;28;20025;-80
2022/05/06 01:20:21;;;;;;;5.45;3.33;;;7.80;43.40;;;;;;5017537;28;20064;-78
2022/05/06 01:22:49;;;;;;;6.22;3.60;;;7.80;43.40;;;;;;5035463;28;20032;-80
2022/05/06 01:25:16;;;;;;;6.43;3.97;;;7.90;43.30;;;;;;5035228;28;20040;-80
2022/05/06 01:27:53;;;;;;;7.68;2.85;;;7.90;43.30;;;;;;5035427;28;20033;-80
2022/05/06 01:30:34;;;;;;;5.32;3.17;;;7.90;43.20;;;;;;5035379;28;20061;-78
2022/05/06 01:33:02;;;;;;;7.78;4.10;;;7.90;43.20;;;;;;5035905;28;20546;-79
2022/05/06 01:35:30;;;;;;;6.35;3.22;;;8.00;43.50;;;;;;5039381;28;20052;-80
2022/05/06 01:38:01;;;;;;;6.32;3.30;;;8.00;43.30;;;;;;5042116;28;20021;-80
2022/05/06 01:40:28;;;;;;;6.07;3.70;;;8.00;43.30;;;;;;5035614;28;20025;-80
2022/05/06 01:42:57;;;;;;;5.72;3.70;;;8.00;43.40;;;;;;5033347;28;20052;-80
2022/05/06 01:45:25;;;;;;;5.90;3.10;;;8.00;43.40;;;;;;5015567;28;20539;-80
2022/05/06 01:47:54;;;;;;;4.97;3.75;;;7.90;43.30;;;;;;5015375;28;20114;-80
2022/05/06 01:50:21;;;;;;;6.80;3.30;;;7.90;43.40;;;;;;5015187;28;20053;-79
2022/05/06 01:52:50;;;;;;;4.30;3.13;;;7.90;43.40;;;;;;5015232;28;20026;-80
2022/05/06 01:55:17;;;;;;;7.72;4.07;;;7.90;43.50;;;;;;5014985;28;20111;-80
2022/05/06 01:57:44;;;;;;;4.03;3.33;;;7.90;43.70;;;;;;5014908;28;20083;-81
2022/05/06 02:00:12;;;;;;;;;;;7.90;43.60;;;;;;5015716;28;20041;-81
2022/05/06 02:02:38;;;;;;;6.97;3.78;;;7.90;43.50;;;;;;4997145;28;20055;-81
2022/05/06 02:05:19;;;;;;;6.32;3.60;;;7.80;43.60;;;;;;5014958;28;20026;-80
2022/05/06 02:07:55;;;;;;;7.40;3.67;;;7.90;43.60;;;;;;5014796;28;20108;-79
2022/05/06 02:10:23;;;;;;;4.60;3.17;;;7.80;43.70;;;;;;5014810;28;20068;-80
2022/05/06 02:12:49;;;;;;;5.72;3.40;;;7.90;43.60;;;;;;5014747;28;20022;-79
2022/05/06 02:15:18;;;;;;;8.95;3.15;;;7.90;44.20;;;;;;5014550;28;20041;-80
2022/05/06 02:17:44;;;;;;;7.88;3.25;;;7.90;43.70;;;;;;5017325;28;20018;-78
2022/05/06 02:20:11;;;;;;;7.07;3.10;;;7.90;43.70;;;;;;5019787;28;20028;-79
2022/05/06 02:22:42;;;;;;;8.63;3.55;;;7.90;43.60;;;;;;5019099;28;20711;-80
2022/05/06 02:25:09;;;;;;;6.78;3.60;;;7.90;43.60;;;;;;5022824;28;20029;-78
2022/05/06 02:27:40;;;;;;;5.55;3.80;;;7.90;43.70;;;;;;5017071;28;20036;-78
2022/05/06 02:35:36;;;;;;;5.63;3.00;;;7.90;43.70;;;;;;5034128;28;20613;-78
2022/05/06 02:38:03;;;;;;;6.00;3.42;;;7.90;43.80;;;;;;5034105;28;20032;-79
2022/05/06 02:40:29;;;;;;;8.23;3.57;;;7.90;43.90;;;;;;5034131;28;20037;-80
2022/05/06 02:42:54;;;;;;;12.88;4.00;;;7.90;44.00;;;;;;5022868;28;20034;-79
2022/05/06 02:45:20;;;;;;;6.82;3.80;;;7.90;44.00;;;;;;5014133;28;20018;-79
2022/05/06 02:47:46;;;;;;;6.93;4.03;;;7.90;44.10;;;;;;5014476;28;20026;-78
2022/05/06 02:50:12;;;;;;;9.00;4.10;;;7.80;44.10;;;;;;5014003;28;20037;-81
2022/05/06 02:52:37;;;;;;;5.85;4.00;;;7.80;44.10;;;;;;5014571;28;20039;-81
2022/05/06 02:55:04;;;;;;;5.40;3.72;;;7.80;44.20;;;;;;5016562;28;20030;-80
2022/05/06 02:57:30;;;;;;;7.80;3.80;;;7.80;44.40;;;;;;5024102;28;20022;-79
2022/05/06 02:59:56;;;;;;;6.72;3.70;;;7.80;44.50;;;;;;5019996;28;20101;-80
2022/05/06 03:02:23;;;;;;;4.93;4.10;;;7.80;44.60;;;;;;5015101;28;20030;-82
2022/05/06 03:04:49;;;;;;;9.25;4.03;;;7.80;44.60;;;;;;5014715;28;20032;-80
2022/05/06 03:07:15;;;;;;;9.00;3.85;;;7.90;44.70;;;;;;5015303;28;20029;-79
2022/05/06 03:09:41;;;;;;;11.32;4.10;;;7.90;44.90;;;;;;5014192;28;20411;-80
2022/05/06 03:12:09;;;;;;;9.00;4.65;;;8.00;45.00;;;;;;5014401;28;20037;-80
2022/05/06 03:14:34;;;;;;;11.48;4.40;;;8.10;44.70;;;;;;5013959;28;20054;-80
2022/05/06 03:17:00;;;;;;;7.25;4.60;;;8.20;44.70;;;;;;5013609;28;20080;-80
2022/05/06 03:19:26;;;;;;;8.65;4.50;;;8.40;44.70;;;;;;5013420;28;20022;-80
2022/05/06 03:21:54;;;;;;;14.25;4.97;;;8.60;44.50;;;;;;5013713;28;20527;-79
2022/05/06 03:24:20;;;;;;;14.00;4.82;;;8.70;44.40;;;;;;5013678;28;20364;-80
2022/05/06 03:26:46;;;;;;;14.85;5.15;;;8.90;44.40;;;;;;5013815;28;20029;-81
2022/05/06 03:29:12;;;;;;;14.70;5.15;;;9.00;44.10;;;;;;5032547;28;20029;-80
2022/05/06 03:31:38;;;;;;;15.93;5.38;;;9.10;44.10;;;;;;5033407;28;20139;-80
2022/05/06 03:34:05;;;;;;;8.77;5.22;;;9.20;44.10;;;;;;5037326;28;20033;-80
2022/05/06 03:36:32;;;;;;;12.05;5.60;;;9.30;43.80;;;;;;5045122;28;20412;-80
2022/05/06 03:38:58;;;;;;;7.22;5.55;;;9.40;43.60;;;;;;5034689;28;20147;-79
2022/05/06 03:41:24;;;;;;;10.50;5.38;;;9.60;43.60;;;;;;5025708;28;20030;-78
2022/05/06 03:43:49;;;;;;;18.35;5.75;;;9.70;43.40;;;;;;5015129;28;20080;-80
2022/05/06 03:46:15;;;;;;;10.57;5.55;;;9.80;42.90;;;;;;5015587;28;20025;-80
2022/05/06 03:48:41;;;;;;;13.77;5.65;;;9.80;43.10;;;;;;5013501;28;20033;-79
2022/05/06 03:51:22;;;;;;;11.70;4.90;;;9.80;43.00;;;;;;5012951;28;20454;-80
2022/05/06 03:53:53;;;;;;;7.05;3.80;;;9.80;43.30;;;;;;5013077;28;20022;-80
2022/05/06 03:56:22;;;;;;;5.28;3.28;;;9.80;42.30;;;;;;5012866;28;20029;-81
2022/05/06 03:58:48;;;;;;;5.45;3.28;;;9.90;41.60;;;;;;5012908;28;20028;-79
2022/05/06 04:01:16;;;;;;;4.15;2.92;;;10.00;41.30;;;;;;5012682;28;20025;-81
2022/05/06 04:03:42;;;;;;;6.18;3.17;;;10.20;41.50;;;;;;5012807;28;20419;-79
2022/05/06 04:06:08;;;;;;;7.53;3.40;;;10.30;41.00;;;;;;5011495;28;20061;-82
2022/05/06 04:08:34;;;;;;;5.53;2.80;;;10.50;40.90;;;;;;5011266;28;20029;-82
2022/05/06 04:11:01;;;;;;;4.85;2.70;;;10.70;40.50;;;;;;5011429;28;20064;-81
2022/05/06 04:13:26;;;;;;;4.72;3.15;;;10.80;40.10;;;;;;5013249;28;20029;-79
2022/05/06 04:15:52;;;;;;;7.85;3.55;;;11.00;40.20;;;;;;5012807;28;20037;-79
2022/05/06 04:18:22;;;;;;;4.50;3.22;;;11.30;40.10;;;;;;5013271;28;20352;-81
2022/05/06 04:23:34;;;;;;;5.95;3.38;;;11.80;39.00;;;;;;5013090;28;20411;-81
2022/05/06 04:26:06;;;;;;;6.32;3.55;;;12.30;38.40;;;;;;5012877;28;20022;-81
2022/05/06 04:28:32;;;;;;;7.53;3.35;;;12.50;38.10;;;;;;5016270;28;20025;-81
2022/05/06 04:30:59;;;;;;;6.70;3.20;;;12.70;37.20;;;;;;5032658;28;20041;-81
2022/05/06 04:33:26;;;;;;;5.40;3.47;;;12.70;37.10;;;;;;5032183;28;20029;-80
2022/05/06 04:35:53;;;;;;;8.32;4.28;;;12.80;37.40;;;;;;5032015;28;20057;-80
2022/05/06 04:38:20;;;;;;;6.47;4.17;;;13.10;37.20;;;;;;5032750;28;20040;-80
2022/05/06 04:40:47;;;;;;;8.67;3.90;;;13.50;36.80;;;;;;5019161;28;20307;-81
2022/05/06 04:43:13;;;;;;;8.90;3.80;;;13.60;36.10;;;;;;5016261;28;20025;-82
2022/05/06 04:45:43;;;;;;;7.13;3.90;;;13.60;35.90;;;;;;5016098;28;20032;-80
2022/05/06 04:48:11;;;;;;;10.02;3.83;;;13.60;35.80;;;;;;5016039;28;20100;-81
2022/05/06 04:50:37;;;;;;;;;;;13.60;36.00;;;;;;5016697;28;20042;-80
2022/05/06 04:53:07;;;;;;;6.32;3.85;;;13.70;36.60;;;;;;5016264;28;19995;-80
2022/05/06 04:55:33;;;;;;;5.55;3.65;;;13.70;36.20;;;;;;5016001;28;20017;-81
2022/05/06 04:57:59;;;;;;;9.98;4.03;;;13.80;35.90;;;;;;5016042;28;20022;-82
2022/05/06 05:00:25;;;;;;;8.15;4.45;;;13.70;35.90;;;;;;5016151;28;20030;-81
2022/05/06 05:02:50;;;;;;;6.65;4.43;;;13.80;36.00;;;;;;4998899;28;20117;-82
2022/05/06 05:05:16;;;;;;;9.18;4.47;;;13.90;35.80;;;;;;5016266;28;20010;-82
2022/05/06 05:07:42;;;;;;;7.13;4.60;;;14.10;35.80;;;;;;5015824;28;20387;-80
2022/05/06 05:10:08;;;;;;;10.10;4.15;;;14.30;35.50;;;;;;5016240;28;20514;-81
2022/05/06 05:12:35;;;;;;;6.32;4.55;;;14.50;35.40;;;;;;5015589;28;20036;-82
2022/05/06 05:15:02;;;;;;;6.93;3.80;;;14.60;35.20;;;;;;5015588;28;20459;-81
2022/05/06 05:17:27;;;;;;;12.20;4.43;;;14.70;34.80;;;;;;5014949;28;20073;-81
2022/05/06 05:19:53;;;;;;;7.97;4.45;;;14.70;34.90;;;;;;5015786;28;20064;-82
2022/05/06 05:22:19;;;;;;;7.32;4.20;;;14.50;34.60;;;;;;5015705;28;20030;-81
2022/05/06 05:24:46;;;;;;;6.57;3.72;;;14.40;34.90;;;;;;5015763;28;20029;-82
2022/05/06 05:27:15;;;;;;;8.45;4.15;;;14.50;34.70;;;;;;5015567;28;20104;-81
2022/05/06 05:29:42;;;;;;;9.82;4.60;;;14.40;34.90;;;;;;5019412;28;20079;-82
2022/05/06 05:32:11;;;;;;;7.83;4.13;;;14.50;35.20;;;;;;5035603;28;20230;-81
2022/05/06 05:34:36;;;;;;;9.73;4.45;;;14.60;35.00;;;;;;5029796;28;20506;-80
2022/05/06 05:37:02;;;;;;;11.18;4.35;;;14.70;34.90;;;;;;5016994;28;20087;-81
2022/05/06 05:39:31;;;;;;;9.23;4.80;;;14.90;34.90;;;;;;5029208;28;20399;-79
2022/05/06 05:41:57;;;;;;;12.95;4.15;;;15.10;34.70;;;;;;5035021;28;20025;-80
2022/05/06 05:49:52;;;;;;;12.15;4.75;;;15.40;34.30;;;;;;5035335;28;20048;-80
2022/05/06 05:52:28;;;;;;;8.32;4.22;;;15.50;34.10;;;;;;5036091;28;20136;-81
2022/05/06 05:54:54;;;;;;;7.32;3.97;;;15.60;34.10;;;;;;5035775;28;20036;-80
2022/05/06 05:57:20;;;;;;;10.05;4.78;;;15.80;34.10;;;;;;5035157;28;20101;-80
2022/05/06 05:59:47;;;;;;;9.93;4.55;;;15.80;34.10;;;;;;5035008;28;20025;-83
2022/05/06 06:02:13;;;;;;;9.05;4.45;;;16.00;33.80;;;;;;5036867;28;20086;-81
2022/05/06 06:04:41;;;;;;;10.15;4.85;;;16.10;33.50;;;;;;5038073;28;20108;-82
2022/05/06 06:07:07;;;;;;;10.95;4.53;;;16.20;33.10;;;;;;5039010;28;20033;-82
2022/05/06 06:09:33;;;;;;;7.45;4.40;;;16.50;32.90;;;;;;5039500;28;20036;-81
2022/05/06 06:11:59;;;;;;;12.63;5.15;;;16.80;32.60;;;;;;5045257;28;20030;-81
2022/05/06 06:14:24;;;;;;;15.65;5.70;;;17.30;32.50;;;;;;5036729;28;20108;-81
2022/05/06 06:16:50;;;;;;;9.65;4.60;;;17.70;32.10;;;;;;5035182;28;20021;-81
2022/05/06 06:19:17;;;;;;;8.45;4.55;;;18.00;31.60;;;;;;5034676;28;20040;-82
2022/05/06 06:21:43;;;;;;;15.90;4.47;;;18.10;31.10;;;;;;5034712;28;20017;-82
2022/05/06 06:24:09;;;;;;;10.65;5.03;;;18.10;31.50;;;;;;5034551;28;20053;-80
2022/05/06 06:26:35;;;;;;;9.60;4.93;;;18.40;31.20;;;;;;5034608;28;20057;-82
2022/05/06 06:29:02;;;;;;;14.55;5.32;;;18.50;30.90;;;;;;5034628;28;20032;-82
2022/05/06 06:31:31;;;;;;;12.48;4.93;;;18.70;30.70;;;;;;5034146;28;20034;-82
2022/05/06 06:34:00;;;;;;;12.40;4.55;;;19.00;30.40;;;;;;5034161;28;20112;-83
2022/05/06 06:36:27;;;;;;;13.05;4.60;;;19.10;30.10;;;;;;5034549;28;20044;-81
2022/05/06 06:38:52;;;;;;;9.27;4.68;;;19.20;30.10;;;;;;5034772;28;20070;-82
2022/05/06 06:41:20;;;;;;;9.85;4.75;;;19.60;30.00;;;;;;5020383;28;20068;-78
2022/05/06 06:43:47;;;;;;;11.45;4.70;;;19.90;29.50;;;;;;5026005;28;20022;-83
2022/05/06 06:46:13;;;;;;;13.70;4.53;;;20.20;29.00;;;;;;5020375;28;20037;-83
2022/05/06 06:48:40;;;;;;;10.73;4.38;;;20.40;28.70;;;;;;5014357;28;20263;-82
2022/05/06 06:51:06;;;;;;;9.70;4.27;;;20.30;28.60;;;;;;5014262;28;20456;-81
2022/05/06 06:53:38;;;;;;;14.00;5.82;;;20.30;28.70;;;;;;5014631;28;20297;-83
2022/05/06 06:56:13;;;;;;;7.43;4.60;;;20.70;28.60;;;;;;5016488;28;20546;-86
2022/05/06 06:58:39;;;;;;;11.25;4.97;;;20.80;28.30;;;;;;5015909;28;20037;-85
2022/05/06 07:01:05;;;;;;;15.50;5.22;;;21.10;28.10;;;;;;5045827;28;20025;-88
2022/05/06 07:03:31;;;;;;;5.22;3.72;;;21.40;28.00;;;;;;5037087;28;20017;-89
2022/05/06 07:14:10;;;;;;;9.82;4.03;;;23.40;26.70;;;;;;5058771;28;20060;-89
2022/05/06 07:16:38;;;;;;;5.93;3.75;;;24.40;25.80;;;;;;5043902;28;20029;-87
2022/05/06 07:19:04;;;;;;;5.32;3.90;;;24.90;25.40;;;;;;5017368;28;20053;-88
2022/05/06 07:21:30;;;;;;;9.35;3.80;;;25.00;25.20;;;;;;5034908;28;20033;-88
2022/05/06 07:23:55;;;;;;;26.35;18.38;;;25.10;24.90;;;;;;5018086;28;20483;-90
2022/05/06 07:26:21;;;;;;;7.70;3.88;;;25.40;25.10;;;;;;5034616;28;20495;-90
2022/05/06 07:28:47;;;;;;;8.30;4.68;;;25.90;24.80;;;;;;5035704;28;20022;-90
2022/05/06 07:31:13;;;;;;;6.60;4.30;;;26.60;24.70;;;;;;5035318;28;20036;-90
2022/05/06 07:33:39;;;;;;;9.63;3.65;;;27.90;24.40;;;;;;5046472;28;20081;-87
2022/05/06 07:36:05;;;;;;;10.20;4.53;;;28.80;23.50;;;;;;5047853;28;20049;-89
2022/05/06 07:38:32;;;;;;;10.40;4.18;;;28.60;23.30;;;;;;5018611;28;20025;-87
2022/05/06 07:40:59;;;;;;;10.30;5.18;;;29.40;23.30;;;;;;5043108;28;20091;-87
2022/05/06 07:43:28;;;;;;;8.45;5.10;;;29.50;23.00;;;;;;5041726;28;20024;-91
2022/05/06 07:45:53;;;;;;;10.73;4.25;;;29.70;23.10;;;;;;5036925;28;20037;-89
2022/05/06 07:48:19;;;;;;;5.07;3.00;;;30.20;22.80;;;;;;5040842;28;20021;-89
2022/05/06 07:50:45;;;;;;;8.75;4.88;;;30.30;22.50;;;;;;5036755;28;20366;-88
2022/05/06 07:53:13;;;;;;;6.72;3.95;;;30.70;22.60;;;;;;5054159;28;20025;-89
2022/05/06 07:55:40;;;;;;;9.88;4.38;;;30.60;22.10;;;;;;5054339;28;20123;-88
2022/05/06 07:58:06;;;;;;;4.45;3.97;;;29.40;22.40;;;;;;5058287;28;20028;-88
2022/05/06 08:00:32;;;;;;;6.28;3.90;;;29.10;22.60;;;;;;5061899;28;20044;-88
2022/05/06 08:05:46;;;;;;;9.25;4.97;;;28.70;22.50;;;;;;5062953;28;20055;-90
2022/05/06 08:08:12;;;;;;;6.60;4.47;;;28.30;22.80;;;;;;5057672;28;20024;-89
2022/05/06 08:10:37;;;;;;;12.88;4.47;;;27.90;23.00;;;;;;5056092;28;20029;-88
2022/05/06 08:13:03;;;;;;;11.50;5.15;;;27.70;22.90;;;;;;5054885;28;20354;-90
2022/05/06 08:15:29;;;;;;;5.10;3.40;;;27.90;23.10;;;;;;5054519;28;20028;-88
2022/05/06 08:17:55;;;;;;;6.55;4.82;;;28.30;22.80;;;;;;5053796;28;20024;-90
2022/05/06 08:20:21;;;;;;;8.55;4.20;;;28.40;22.60;;;;;;5053894;28;20028;-92
2022/05/06 08:22:47;;;;;;;7.40;4.25;;;28.40;22.80;;;;;;5048676;28;20511;-89
2022/05/06 08:25:13;;;;;;;8.85;3.60;;;29.80;22.90;;;;;;5035547;28;20028;-89
2022/05/06 08:27:43;;;;;;;6.60;3.70;;;30.70;22.40;;;;;;5016731;28;20025;-88
2022/05/06 08:30:12;;;;;;;5.97;4.00;;;31.20;22.30;;;;;;5015756;28;20045;-91
2022/05/06 08:32:40;;;;;;;4.03;3.60;;;31.80;22.00;;;;;;5033931;28;20487;-88
2022/05/06 08:35:08;;;;;;;8.70;4.57;;;32.90;22.00;;;;;;5033804;28;20052;-90
2022/05/06 08:37:45;;;;;;;5.93;3.42;;;31.60;21.60;;;;;;5016062;28;20033;-90
2022/05/06 08:40:29;;;;;;;6.72;4.20;;;30.40;22.10;;;;;;5030617;28;20021;-87
2022/05/06 08:42:56;;;;;;;4.80;3.72;;;30.30;22.30;;;;;;5053715;28;20486;-86
2022/05/06 08:50:54;;;;;;;10.75;3.63;;;25.40;23.60;;;;;;5059773;28;20032;-90
2022/05/06 08:53:26;;;;;;;7.60;4.05;;;24.00;24.10;;;;;;5065860;28;20032;-89
2022/05/06 08:55:55;;;;;;;6.57;3.55;;;22.30;25.30;;;;;;5066136;28;20103;-91
2022/05/06 08:58:22;;;;;;;6.68;3.92;;;22.00;25.80;;;;;;5054934;28;20060;-89
2022/05/06 09:00:49;;;;;;;6.05;3.28;;;23.10;25.50;;;;;;5053616;28;20037;-89
2022/05/06 09:03:17;;;;;;;7.10;3.55;;;24.20;24.50;;;;;;5036784;28;20514;-89
2022/05/06 09:05:58;;;;;;;6.18;3.92;;;25.10;24.30;;;;;;5053214;28;20037;-90
2022/05/06 09:08:35;;;;;;;4.72;3.45;;;27.70;23.80;;;;;;5053865;28;20029;-89
2022/05/06 09:11:04;;;;;;;8.85;3.35;;;28.80;22.40;;;;;;5036126;28;20053;-89
2022/05/06 09:13:31;;;;;;;5.70;3.60;;;27.70;22.60;;;;;;5052023;28;20100;-89
2022/05/06 09:19:19;;;;;;;7.38;3.67;;;26.10;23.30;;;;;;5053472;28;20003;-89
2022/05/06 09:22:03;;;;;;;8.45;3.65;;;26.30;23.70;;;;;;5038299;28;20118;-90
2022/05/06 09:24:31;;;;;;;10.32;4.53;;;27.80;23.00;;;;;;5035692;28;20033;-87
2022/05/06 09:26:58;;;;;;;6.43;3.85;;;29.30;22.60;;;;;;5053469;28;20033;-91
2022/05/06 09:29:51;;;;;;;5.40;3.58;;;30.00;21.70;;;;;;5054734;28;20025;-89
2022/05/06 09:32:26;;;;;;;7.22;4.20;;;28.60;22.10;;;;;;5036181;28;20040;-91
2022/05/06 09:34:57;;;;;;;6.57;3.90;;;28.40;22.40;;;;;;5002143;28;20058;-89
2022/05/06 09:37:29;;;;;;;6.30;4.10;;;29.30;22.50;;;;;;5018300;28;20499;-89
2022/05/06 09:40:10;;;;;;;6.07;4.07;;;30.00;21.80;;;;;;5018819;28;20022;-88
2022/05/06 09:42:41;;;;;;;6.70;3.90;;;29.30;22.30;;;;;;5026253;28;20036;-90
2022/05/06 09:45:08;;;;;;;6.47;3.67;;;28.70;22.20;;;;;;5020870;28;20026;-89
2022/05/06 09:47:34;;;;;;;5.32;4.07;;;28.10;22.30;;;;;;5023953;28;20052;-89
2022/05/06 09:50:02;;;;;;;7.67;4.93;;;28.00;22.40;;;;;;5041643;28;20030;-87
2022/05/06 09:52:28;;;;;;;6.65;5.32;;;26.80;22.30;;;;;;5032879;28;20026;-91
2022/05/06 09:54:54;;;;;;;11.57;4.95;;;26.50;23.00;;;;;;5052292;28;20057;-88
2022/05/06 09:57:20;;;;;;;7.37;4.13;;;26.50;22.50;;;;;;5049794;28;20022;-91
2022/05/06 09:59:47;;;;;;;6.32;4.50;;;26.10;22.80;;;;;;5030496;28;20269;-91
2022/05/06 10:02:14;;;;;;;7.30;4.20;;;26.00;22.70;;;;;;5051184;28;20033;-89
2022/05/06 10:04:40;;;;;;;7.97;4.50;;;25.70;22.90;;;;;;5056630;28;20036;-90
2022/05/06 10:07:11;;;;;;;9.60;4.53;;;25.90;22.90;;;;;;5041376;28;20025;-90
2022/05/06 10:09:48;;;;;;;7.00;4.15;;;25.50;23.00;;;;;;5059381;28;20108;-90
2022/05/06 10:12:16;;;;;;;8.02;5.00;;;25.40;23.20;;;;;;5071626;28;20105;-90
2022/05/06 10:14:44;;;;;;;6.65;5.15;;;24.90;23.30;;;;;;5055923;28;20060;-89
2022/05/06 10:17:10;;;;;;;6.82;4.20;;;24.20;23.50;;;;;;5062147;28;20044;-88
2022/05/06 10:19:38;;;;;;;8.57;5.20;;;23.40;24.00;;;;;;5060304;28;20021;-90
2022/05/06 10:22:05;;;;;;;7.25;4.90;;;22.90;24.60;;;;;;5040044;28;20095;-91
2022/05/06 10:24:43;;;;;;;6.75;4.13;;;22.40;24.80;;;;;;5022528;28;20083;-88
2022/05/06 10:33:18;;;;;;;10.50;5.53;;;21.20;25.80;;;;;;5022280;28;20108;-88
2022/05/06 10:35:46;;;;;;;6.55;5.05;;;21.30;26.00;;;;;;5023213;28;20069;-90
2022/05/06 10:38:21;;;;;;;7.95;4.25;;;21.40;26.00;;;;;;5022096;28;20066;-90
2022/05/06 10:40:57;;;;;;;5.40;4.07;;;21.30;26.10;;;;;;5019327;28;20057;-88
2022/05/06 10:43:41;;;;;;;7.45;4.32;;;21.20;25.90;;;;;;5024487;28;20047;-90
2022/05/06 10:46:07;;;;;;;6.57;4.28;;;20.90;26.10;;;;;;5036157;28;20034;-90
2022/05/06 10:48:33;;;;;;;6.63;4.60;;;20.60;26.30;;;;;;5036541;28;20379;-90
2022/05/06 10:51:27;;;;;;;10.13;5.07;;;20.70;26.60;;;;;;5036655;28;20030;-91
2022/05/06 10:53:54;;;;;;;8.48;3.67;;;20.80;26.60;;;;;;5038749;28;20025;-90
2022/05/06 10:56:19;;;;;;;6.78;4.32;;;20.60;26.30;;;;;;5019146;28;20112;-90
2022/05/06 10:58:45;;;;;;;7.47;4.32;;;20.10;26.60;;;;;;5037166;28;20498;-92
2022/05/06 11:01:16;;;;;;;6.60;3.75;;;20.00;27.10;;;;;;5034355;28;20044;-90
2022/05/06 11:03:52;;;;;;;7.22;4.30;;;20.10;26.80;;;;;;5037976;28;20021;-92
2022/05/06 11:06:24;;;;;;;12.93;6.70;;;20.00;27.10;;;;;;5038540;28;20033;-90
2022/05/06 11:08:50;;;;;;;6.22;4.45;;;19.90;27.20;;;;;;5055158;28;20162;-90
2022/05/06 11:11:18;;;;;;;6.55;3.97;;;19.80;27.40;;;;;;5056518;28;20111;-88
2022/05/06 11:13:47;;;;;;;5.85;4.15;;;19.70;27.30;;;;;;5039782;28;20021;-90
2022/05/06 11:16:17;;;;;;;8.18;4.40;;;19.60;27.50;;;;;;5053320;28;20029;-89
2022/05/06 11:18:44;;;;;;;9.98;4.93;;;19.50;27.80;;;;;;5055980;28;20099;-89
2022/05/06 11:21:21;;;;;;;7.80;5.40;;;19.30;27.40;;;;;;5056320;28;20033;-91
2022/05/06 11:23:46;;;;;;;8.17;4.77;;;19.00;27.90;;;;;;5058480;28;20096;-91
2022/05/06 11:26:26;;;;;;;11.68;5.63;;;18.80;27.90;;;;;;5055997;28;20060;-91
2022/05/06 11:29:05;;;;;;;10.50;5.03;;;18.80;28.30;;;;;;5055215;28;20044;-91
2022/05/06 11:31:32;;;;;;;7.88;5.15;;;18.90;28.10;;;;;;5005397;28;20057;-90
2022/05/06 11:34:04;;;;;;;9.27;5.22;;;18.90;28.00;;;;;;5033846;28;20096;-91
2022/05/06 11:36:30;;;;;;;7.22;5.13;;;18.70;27.90;;;;;;5056531;28;20104;-89
2022/05/06 11:38:56;;;;;;;10.65;5.82;;;18.30;28.30;;;;;;5056988;28;20028;-89
2022/05/06 11:41:24;;;;;;;8.30;5.70;;;18.40;28.50;;;;;;5041716;28;20040;-89
2022/05/06 11:43:49;;;;;;;;;;;18.60;28.40;;;;;;5040421;28;20021;-89
2022/05/06 11:49:01;;;;;;;9.02;5.60;;;18.80;28.30;;;;;;5059638;28;20036;-88
2022/05/06 11:51:30;;;;;;;11.93;5.82;;;18.90;28.10;;;;;;5045210;28;20383;-89
2022/05/06 11:53:58;;;;;;;21.00;8.65;;;18.80;27.90;;;;;;5019638;28;20036;-89
2022/05/06 11:56:27;;;;;;;7.30;6.30;;;18.70;28.00;;;;;;5022198;28;20033;-88
2022/05/06 11:58:55;;;;;;;8.88;5.80;;;18.60;28.20;;;;;;5035221;28;20088;-89
2022/05/06 12:01:33;;;;;;;20.55;9.10;;;18.60;28.20;;;;;;5017072;28;20061;-91
2022/05/06 12:04:03;;;;;;;6.13;5.28;;;18.70;28.30;;;;;;5016899;28;20052;-88
2022/05/06 12:06:31;;;;;;;6.90;5.35;;;18.80;28.00;;;;;;5019753;28;20049;-90
2022/05/06 12:09:14;;;;;;;9.45;5.70;;;18.50;28.00;;;;;;5051981;28;20032;-90
2022/05/06 12:11:41;;;;;;;9.27;6.38;;;18.40;28.50;;;;;;5057149;28;20079;-88
2022/05/06 12:14:09;;;;;;;14.10;6.40;;;18.50;28.50;;;;;;5056996;28;20052;-89
2022/05/06 12:16:35;;;;;;;7.85;5.28;;;18.40;28.50;;;;;;5042586;28;20120;-89
2022/05/06 12:19:01;;;;;;;7.45;4.93;;;18.30;28.70;;;;;;5041187;28;20021;-88
2022/05/06 12:21:28;;;;;;;12.18;5.18;;;18.30;28.90;;;;;;5060429;28;20041;-90
2022/05/06 12:24:00;;;;;;;10.75;5.65;;;18.30;28.60;;;;;;5053995;28;20020;-88
2022/05/06 12:26:30;;;;;;;11.90;6.60;;;18.30;28.80;;;;;;5071445;28;20024;-88
2022/05/06 12:28:57;;;;;;;10.75;6.43;;;18.40;29.20;;;;;;5054294;28;20014;-87
2022/05/06 12:31:33;;;;;;;8.95;5.35;;;18.50;29.30;;;;;;5020775;28;20124;-89
2022/05/06 12:34:04;;;;;;;7.80;5.35;;;18.60;28.60;;;;;;5019175;28;20021;-89
2022/05/06 12:36:30;;;;;;;8.40;5.03;;;18.60;28.60;;;;;;5035672;28;20109;-88
2022/05/06 12:38:55;;;;;;;12.90;6.00;;;18.60;28.30;;;;;;5017652;28;20107;-90
2022/05/06 12:41:35;;;;;;;8.85;5.40;;;18.50;28.40;;;;;;5034444;28;20192;-88
2022/05/06 12:44:19;;;;;;;6.20;5.55;;;18.40;28.30;;;;;;5035178;28;20107;-90
2022/05/06 12:46:45;;;;;;;7.95;5.70;;;18.20;28.10;;;;;;5039873;28;20025;-88
2022/05/06 12:51:55;;;;;;;18.73;6.45;;;18.00;28.50;;;;;;5056660;28;20040;-90
2022/05/06 12:54:22;;;;;;;6.55;4.65;;;18.00;29.00;;;;;;5040025;28;20021;-89
2022/05/06 12:56:49;;;;;;;9.88;5.35;;;18.00;29.00;;;;;;5036712;28;20033;-89
2022/05/06 12:59:16;;;;;;;8.07;4.55;;;18.00;28.80;;;;;;5053907;28;20060;-89
2022/05/06 13:01:42;;;;;;;10.05;4.97;;;18.00;28.80;;;;;;5035486;28;20099;-88
2022/05/06 13:04:08;;;;;;;9.85;5.60;;;17.90;28.50;;;;;;5063523;28;20021;-88
2022/05/06 13:06:34;;;;;;;6.63;4.78;;;17.70;28.50;;;;;;5056091;28;20025;-88
2022/05/06 13:09:00;;;;;;;8.27;5.18;;;17.50;28.70;;;;;;5057075;28;20021;-87
2022/05/06 13:11:27;;;;;;;7.20;5.25;;;17.40;29.00;;;;;;5058355;28;20021;-89
2022/05/06 13:13:53;;;;;;;42.10;10.57;;;17.40;29.10;;;;;;5058064;28;20029;-87
2022/05/06 13:16:18;;;;;;;8.05;5.50;;;17.40;29.10;;;;;;5058219;28;20425;-89
2022/05/06 13:18:44;;;;;;;7.72;5.85;;;17.40;29.10;;;;;;5040899;28;20036;-90
2022/05/06 13:21:10;;;;;;;5.32;4.47;;;17.50;29.20;;;;;;5039572;28;20037;-88
2022/05/06 13:23:37;;;;;;;7.43;5.03;;;17.70;29.00;;;;;;5038721;28;20021;-89
2022/05/06 13:26:04;;;;;;;8.88;5.78;;;17.60;29.10;;;;;;5057067;28;20033;-89
2022/05/06 13:28:30;;;;;;;11.82;5.45;;;17.70;29.00;;;;;;5036777;28;20022;-92
2022/05/06 13:30:55;;;;;;;10.00;6.07;;;17.60;28.90;;;;;;5031708;28;20026;-92
2022/05/06 13:33:21;;;;;;;8.75;5.45;;;17.50;29.10;;;;;;5037798;28;20099;-89
2022/05/06 13:35:47;;;;;;;6.63;4.78;;;17.50;29.20;;;;;;5038823;28;20049;-90
2022/05/06 13:38:13;;;;;;;6.28;4.68;;;17.40;29.30;;;;;;5040552;28;20496;-89